KSTK/STK METAR and TAF weather

Enter ICAO airport designator
Station Type Date Time Source
KSTK METAR 2019/02/20 23:30 UTC NOAA

KSTK 202330Z AUTO 33010G16KT 10SM CLR 02/M16 A2965 RMK AO2


Station Type Date Time Source
KSTK Decoded METAR 2019/02/20 23:30 UTC NOAA

Station name not available
Feb 20, 2019 - 06:30 PM EST / 2019.02.20 2330 UTC
Wind: from the NNW (330 degrees) at 12 MPH (10 KT) gusting to 18 MPH (16 KT):0
Visibility: 10 mile(s):0
Sky conditions: clear
Temperature: 35 F (2 C)
Windchill: 26 F (-3 C):1
Dew Point: 3 F (-16 C)
Relative Humidity: 24%
Pressure (altimeter): 29.65 in. Hg (1004 hPa)
ob: KSTK 202330Z AUTO 33010G16KT 10SM CLR 02/M16 A2965 RMK AO2
cycle: 23

Station Type Date Time Source
KSTK TAF UTC NOAA

Error!


Example: see airport list